»·PEaware :: AAL1509 KMIA-MDPC

AAL1509 :: KMIA-MDPC

FLIGHT INFORMATION

Flight Status: Arrived
Operator:
American Airlines
More flights by this operator :: More flights under this callsign
Pilot: Manuel R. (32559)
Aircraft: BOEING 737-800
(B738)
More flights by this aircraft type
Origin: KMIA Miami Intl
United States
Destination: MDPC Punta Cana Intl
Dominican Republic
More flights between these airports :: More routes between these airports
Route: SKIPS2 SKIPS Y290 BITAC Y396 RUMFO Y441 JUELE/N0380F190 L463 PTA W28 BEREL BERE2C
File this flight plan on PilotEdge
Remarks:
Altitude:
(Current/Filed)
35,000ft
Speed:
(Current/Filed)
270kts
Departed: 23-Nov-20 02:45 PM
Arrived: 23-Nov-20 04:57 PM
Distance/Time
Traveled:
791nm/2:12
Distance/Time
To Go:
Arrived

Flight Plot

Page will automatically refresh every two minutes.

Flight plan parsing failed; only flown route is shown


Map Options




Map Legend


Flown Route
Filed Route
Departure Airport
Arrival Airport
Navaid (VOR, NDB)
Fix

Horizontal Profiles

Position Reports

Time Latitude Longitude Heading Altitude Ground
Speed
23-Nov-20 13:56 25.798255 -80.283699 177 14ft 0kts
23-Nov-20 13:57 25.798255 -80.283699 177 14ft 0kts
23-Nov-20 13:58 25.798255 -80.283699 177 14ft 0kts
23-Nov-20 13:59 25.798255 -80.283699 177 14ft 0kts
23-Nov-20 14:00 25.798255 -80.283699 177 13ft 0kts
23-Nov-20 14:01 25.798255 -80.283699 177 13ft 0kts
23-Nov-20 14:02 25.798255 -80.283699 177 13ft 0kts
23-Nov-20 14:03 25.798255 -80.283699 177 13ft 0kts
23-Nov-20 14:04 25.798255 -80.283699 177 13ft 0kts
23-Nov-20 14:05 25.798255 -80.283699 177 13ft 0kts
23-Nov-20 14:06 25.798255 -80.283699 177 13ft 0kts
23-Nov-20 14:07 25.798255 -80.283699 177 13ft 0kts
23-Nov-20 14:08 25.798255 -80.283699 177 13ft 0kts
23-Nov-20 14:09 25.798255 -80.283699 177 13ft 0kts
23-Nov-20 14:10 25.798255 -80.283699 177 13ft 0kts
23-Nov-20 14:11 25.798255 -80.283699 177 13ft 0kts
23-Nov-20 14:12 25.798255 -80.283699 177 13ft 0kts
23-Nov-20 14:13 25.798255 -80.283699 177 13ft 0kts
23-Nov-20 14:14 25.798255 -80.283699 177 13ft 0kts
23-Nov-20 14:15 25.798255 -80.283699 177 13ft 0kts
23-Nov-20 14:16 25.798255 -80.283699 177 13ft 0kts
23-Nov-20 14:17 25.798255 -80.283699 177 13ft 0kts
23-Nov-20 14:18 25.798255 -80.283699 177 13ft 0kts
23-Nov-20 14:19 25.798255 -80.283699 177 13ft 0kts
23-Nov-20 14:20 25.798255 -80.283699 177 13ft 0kts
23-Nov-20 14:21 25.798255 -80.283699 177 13ft 0kts
23-Nov-20 14:22 25.798255 -80.283699 177 13ft 0kts
23-Nov-20 14:23 25.798255 -80.283699 177 13ft 0kts
23-Nov-20 14:24 25.798255 -80.283699 177 13ft 0kts
23-Nov-20 14:25 25.798255 -80.283699 177 13ft 0kts
23-Nov-20 14:26 25.798255 -80.283699 177 13ft 0kts
23-Nov-20 14:27 25.798255 -80.283699 177 13ft 0kts
23-Nov-20 14:28 25.798255 -80.283699 177 13ft 0kts
23-Nov-20 14:29 25.798255 -80.283699 177 14ft 0kts
23-Nov-20 14:30 25.798537 -80.283712 184 14ft 2kts
23-Nov-20 14:31 25.799024 -80.283373 240 14ft 2kts
23-Nov-20 14:32 25.799114 -80.283011 268 14ft 0kts
23-Nov-20 14:33 25.799114 -80.283011 267 13ft 0kts
23-Nov-20 14:34 25.799114 -80.283011 267 13ft 0kts
23-Nov-20 14:35 25.799114 -80.283011 267 13ft 0kts
23-Nov-20 14:36 25.799109 -80.283168 267 13ft 0kts
23-Nov-20 14:37 25.799069 -80.284011 266 13ft 0kts
23-Nov-20 14:38 25.799382 -80.285839 275 13ft 6kts
23-Nov-20 14:39 25.799329 -80.287987 267 13ft 8kts
23-Nov-20 14:40 25.799253 -80.290324 266 13ft 13kts
23-Nov-20 14:41 25.799000 -80.297407 286 14ft 17kts
23-Nov-20 14:42 25.799631 -80.301058 264 14ft 14kts
23-Nov-20 14:43 25.798892 -80.301499 119 13ft 0kts
23-Nov-20 14:44 25.795327 -80.294497 119 14ft 137kts
23-Nov-20 14:45 25.768108 -80.244055 117 1726ft 228kts
23-Nov-20 14:46 25.745022 -80.179072 102 2868ft 228kts
23-Nov-20 14:47 25.735082 -80.106219 95 3757ft 239kts
23-Nov-20 14:48 25.727480 -80.030726 96 5485ft 250kts
23-Nov-20 14:49 25.700533 -79.958883 102 8882ft 264kts
23-Nov-20 14:50 25.687194 -79.887870 102 11712ft 281kts
23-Nov-20 14:51 25.678102 -79.841998 102 13437ft 287kts
23-Nov-20 14:52 25.660684 -79.754743 102 16550ft 294kts
23-Nov-20 14:53 25.640566 -79.658443 104 17995ft 349kts
23-Nov-20 14:54 25.616563 -79.552006 103 20422ft 364kts
23-Nov-20 14:55 25.591731 -79.441321 103 22647ft 377kts
23-Nov-20 14:56 25.565872 -79.326944 105 24633ft 390kts
23-Nov-20 14:57 25.526917 -79.219735 114 26466ft 398kts
23-Nov-20 14:58 25.478637 -79.109402 114 28461ft 400kts
23-Nov-20 15:00 25.429325 -79.000017 114 30462ft 394kts
23-Nov-20 15:01 25.380769 -78.893209 114 32463ft 383kts
23-Nov-20 15:02 25.334011 -78.790780 113 34457ft 364kts
23-Nov-20 15:03 25.288380 -78.690961 113 35104ft 373kts
23-Nov-20 15:04 25.240322 -78.586021 113 35099ft 395kts
23-Nov-20 15:05 25.190476 -78.477557 113 35095ft 394kts
23-Nov-20 15:06 25.140675 -78.369401 113 35094ft 405kts
23-Nov-20 15:07 25.088293 -78.255822 114 35091ft 425kts
23-Nov-20 15:08 25.033734 -78.137816 114 35094ft 442kts
23-Nov-20 15:09 24.976981 -78.015369 114 35099ft 455kts
23-Nov-20 15:10 24.919282 -77.891320 113 35100ft 453kts
23-Nov-20 15:11 24.861748 -77.767973 113 35100ft 453kts
23-Nov-20 15:12 24.804149 -77.644817 113 35100ft 453kts
23-Nov-20 15:13 24.741995 -77.524464 121 35101ft 456kts
23-Nov-20 15:14 24.667939 -77.411333 122 35100ft 457kts
23-Nov-20 15:15 24.593289 -77.298752 122 35096ft 457kts
23-Nov-20 15:16 24.518365 -77.186276 122 35087ft 457kts
23-Nov-20 15:16 24.455839 -77.092667 122 35082ft 457kts
23-Nov-20 15:18 24.368155 -76.961733 122 35084ft 457kts
23-Nov-20 15:18 24.305708 -76.868692 122 35088ft 457kts
23-Nov-20 15:19 24.230119 -76.756311 122 35091ft 458kts
23-Nov-20 15:20 24.154734 -76.644495 122 35091ft 457kts
23-Nov-20 15:21 24.079179 -76.532676 122 35092ft 458kts
23-Nov-20 15:22 24.003157 -76.420424 122 35091ft 459kts
23-Nov-20 15:23 23.927561 -76.309055 123 35084ft 458kts
23-Nov-20 15:24 23.851386 -76.197070 123 35075ft 459kts
23-Nov-20 15:25 23.775400 -76.085625 123 35073ft 459kts
23-Nov-20 15:26 23.699247 -75.974184 123 35073ft 459kts
23-Nov-20 15:27 23.623030 -75.862899 123 35073ft 458kts
23-Nov-20 15:28 23.546763 -75.751781 123 35073ft 458kts
23-Nov-20 15:29 23.470632 -75.641113 123 35073ft 458kts
23-Nov-20 15:30 23.394509 -75.530699 123 35073ft 457kts
23-Nov-20 15:31 23.318076 -75.420076 123 35073ft 457kts
23-Nov-20 15:32 23.241860 -75.310009 123 35072ft 456kts
23-Nov-20 15:33 23.165464 -75.199919 123 35073ft 456kts
23-Nov-20 15:34 23.089258 -75.090335 123 35073ft 456kts
23-Nov-20 15:35 23.015386 -74.979126 121 35073ft 455kts
23-Nov-20 15:36 22.942402 -74.867224 121 35073ft 454kts
23-Nov-20 15:37 22.869644 -74.755453 121 35072ft 454kts
23-Nov-20 15:38 22.797011 -74.643986 121 35064ft 454kts
23-Nov-20 15:39 22.724112 -74.532310 121 35056ft 454kts
23-Nov-20 15:40 22.651185 -74.420827 121 35054ft 453kts
23-Nov-20 15:41 22.578264 -74.309581 122 35054ft 454kts
23-Nov-20 15:42 22.505323 -74.198551 122 35054ft 453kts
23-Nov-20 15:43 22.432146 -74.087384 122 35046ft 454kts
23-Nov-20 15:44 22.359170 -73.976756 122 35030ft 454kts
23-Nov-20 15:45 22.285778 -73.865729 122 35020ft 454kts
23-Nov-20 15:46 22.212705 -73.755413 122 35020ft 454kts
23-Nov-20 15:47 22.139324 -73.644861 122 35020ft 454kts
23-Nov-20 15:48 22.065820 -73.534353 122 35020ft 454kts
23-Nov-20 15:49 21.991980 -73.423565 122 35020ft 455kts
23-Nov-20 15:50 21.918323 -73.313281 122 35020ft 455kts
23-Nov-20 15:51 21.844284 -73.202653 122 35020ft 456kts
23-Nov-20 15:52 21.770132 -73.092067 122 35009ft 457kts
23-Nov-20 15:53 21.695688 -72.981279 122 34997ft 457kts
23-Nov-20 15:54 21.621293 -72.870792 122 34993ft 457kts
23-Nov-20 15:55 21.546735 -72.760283 122 34993ft 458kts
23-Nov-20 15:56 21.471691 -72.649272 122 34993ft 458kts
23-Nov-20 15:57 21.396913 -72.538885 122 34993ft 458kts
23-Nov-20 15:58 21.321890 -72.428359 122 34993ft 459kts
23-Nov-20 15:59 21.246894 -72.318091 123 34993ft 459kts
23-Nov-20 16:00 21.171535 -72.207508 123 34995ft 459kts
23-Nov-20 16:01 21.096341 -72.097385 123 35006ft 459kts
23-Nov-20 16:02 21.020995 -71.987257 123 35004ft 459kts
23-Nov-20 16:03 20.945363 -71.876921 123 34992ft 462kts
23-Nov-20 16:04 20.869507 -71.766493 123 34993ft 461kts
23-Nov-20 16:05 20.793616 -71.656217 123 34993ft 461kts
23-Nov-20 16:06 20.717480 -71.545805 123 34993ft 461kts
23-Nov-20 16:07 20.641597 -71.435969 124 34993ft 461kts
23-Nov-20 16:08 20.565439 -71.325947 124 34993ft 462kts
23-Nov-20 16:09 20.488841 -71.215494 124 34992ft 461kts
23-Nov-20 16:10 20.406124 -71.117752 136 32547ft 448kts
23-Nov-20 16:11 20.313106 -71.033468 139 28838ft 426kts
23-Nov-20 16:12 20.224204 -70.957456 140 25734ft 399kts
23-Nov-20 16:13 20.142365 -70.888758 140 23814ft 353kts
23-Nov-20 16:14 20.066705 -70.825626 140 22022ft 343kts
23-Nov-20 16:15 19.992854 -70.764184 140 20216ft 331kts
23-Nov-20 16:16 19.918696 -70.702576 140 18427ft 339kts
23-Nov-20 16:17 19.846274 -70.642539 140 17965ft 333kts
23-Nov-20 16:18 19.774625 -70.581199 133 17975ft 329kts
23-Nov-20 16:19 19.720133 -70.503952 120 17984ft 327kts
23-Nov-20 16:20 19.672121 -70.421743 120 17993ft 327kts
23-Nov-20 16:21 19.624100 -70.339780 120 17993ft 326kts
23-Nov-20 16:22 19.576222 -70.258184 120 17993ft 326kts
23-Nov-20 16:23 19.528302 -70.176626 120 17993ft 326kts
23-Nov-20 16:24 19.480225 -70.094910 120 17993ft 326kts
23-Nov-20 16:25 19.432038 -70.013165 120 17986ft 327kts
23-Nov-20 16:26 19.383729 -69.931675 120 17977ft 326kts
23-Nov-20 16:27 19.335533 -69.850244 120 17968ft 327kts
23-Nov-20 16:28 19.287721 -69.769586 120 17959ft 310kts
23-Nov-20 16:29 19.257736 -69.688193 114 17967ft 302kts
23-Nov-20 16:30 19.216599 -69.611072 117 17966ft 301kts
23-Nov-20 16:31 19.175315 -69.533766 117 17966ft 301kts
23-Nov-20 16:32 19.134202 -69.456769 117 17966ft 300kts
23-Nov-20 16:33 19.093030 -69.379746 117 17966ft 301kts
23-Nov-20 16:34 19.051875 -69.302864 117 17966ft 301kts
23-Nov-20 16:35 19.010537 -69.225735 117 17966ft 301kts
23-Nov-20 16:36 18.969282 -69.148810 117 17966ft 301kts
23-Nov-20 16:37 18.930500 -69.070690 115 17970ft 300kts
23-Nov-20 16:38 18.891728 -68.992576 115 17980ft 300kts
23-Nov-20 16:39 18.850914 -68.915508 117 17986ft 300kts
23-Nov-20 16:40 18.807525 -68.838927 121 15649ft 314kts
23-Nov-20 16:41 18.759696 -68.762285 121 12555ft 313kts
23-Nov-20 16:42 18.714192 -68.689014 121 10950ft 267kts
23-Nov-20 16:43 18.676794 -68.628784 121 10979ft 237kts
23-Nov-20 16:44 18.642530 -68.568971 108 10965ft 237kts
23-Nov-20 16:45 18.640597 -68.499954 82 10420ft 247kts
23-Nov-20 16:46 18.649031 -68.425620 83 7975ft 256kts
23-Nov-20 16:47 18.655027 -68.351784 86 5587ft 257kts
23-Nov-20 16:48 18.660366 -68.275711 86 2965ft 251kts
23-Nov-20 16:49 18.664669 -68.215483 86 2943ft 163kts
23-Nov-20 16:50 18.648564 -68.178860 170 2309ft 164kts
23-Nov-20 16:51 18.603411 -68.175534 171 1933ft 164kts
23-Nov-20 16:53 18.580468 -68.212874 263 1975ft 181kts
23-Nov-20 16:54 18.574554 -68.262981 266 1673ft 181kts
23-Nov-20 16:55 18.571163 -68.314372 267 655ft 156kts
23-Nov-20 16:56 18.567915 -68.357082 266 40ft 133kts
23-Nov-20 16:57 18.566228 -68.377011 258 54ft 23kts
23-Nov-20 16:58 18.564645 -68.374679 84 53ft 25kts
23-Nov-20 16:59 18.565310 -68.367136 83 44ft 27kts
23-Nov-20 17:00 18.564404 -68.364406 187 42ft 4kts
23-Nov-20 17:01 18.563759 -68.364373 174 42ft 0kts
23-Nov-20 17:02 18.563759 -68.364373 174 42ft 0kts
23-Nov-20 17:03 18.563759 -68.364373 174 42ft 0kts

Navigation Log

Ident Type
Flight plan parsing failed, navigation log unavailable